Time;durP1;ratioP1;P1;durP2;ratioP2;P2;SDS_P1;SDS_P2;PMS_P1;PMS_P2;Temp;Humidity;BMP_temperature;BMP_pressure;BME280_temperature;BME280_humidity;BME280_pressure;Samples;Min_cycle;Max_cycle;Signal;HPM_P1;HPM_P2
2021/08/10 00:01:34;;;;;;;1.30;1.20;;;;;;;;;;5015431;28;20201;-40
2021/08/10 00:04:00;;;;;;;1.40;1.02;;;;;;;;;;5015370;28;20184;-40
2021/08/10 00:06:26;;;;;;;1.50;1.40;;;;;;;;;;5017217;28;20242;-40
2021/08/10 00:08:52;;;;;;;1.10;1.10;;;;;;;;;;5019902;28;20299;-40
2021/08/10 00:11:19;;;;;;;1.30;1.20;;;;;;;;;;5015256;28;20616;-40
2021/08/10 00:13:45;;;;;;;1.88;1.33;;;;;;;;;;5015177;28;20506;-40
2021/08/10 00:16:11;;;;;;;1.20;1.10;;;;;;;;;;5015478;28;20168;-40
2021/08/10 00:18:37;;;;;;;2.67;1.20;;;;;;;;;;5014307;28;20413;-40
2021/08/10 00:21:03;;;;;;;1.33;1.23;;;;;;;;;;5031406;28;20176;-40
2021/08/10 00:23:29;;;;;;;1.30;1.20;;;;;;;;;;5028757;28;20515;-40
2021/08/10 00:25:55;;;;;;;1.33;1.23;;;;;;;;;;5015118;28;20295;-40
2021/08/10 00:28:21;;;;;;;1.27;1.17;;;;;;;;;;5014461;28;20277;-40
2021/08/10 00:30:47;;;;;;;2.22;1.23;;;;;;;;;;5033093;28;20559;-40
2021/08/10 00:33:13;;;;;;;1.20;1.10;;;;;;;;;;5031095;28;20256;-40
2021/08/10 00:35:39;;;;;;;1.33;1.23;;;;;;;;;;5014814;28;20231;-40
2021/08/10 00:38:06;;;;;;;1.20;1.08;;;;;;;;;;5029661;28;20192;-40
2021/08/10 00:40:32;;;;;;;2.05;1.20;;;;;;;;;;5030400;28;20188;-40
2021/08/10 00:42:58;;;;;;;1.00;1.00;;;;;;;;;;5014824;28;20196;-40
2021/08/10 00:45:24;;;;;;;1.67;1.30;;;;;;;;;;5014896;28;20204;-40
2021/08/10 00:47:50;;;;;;;0.98;0.98;;;;;;;;;;5014131;28;20611;-40
2021/08/10 00:50:16;;;;;;;1.48;1.38;;;;;;;;;;5014587;28;20172;-41
2021/08/10 00:52:43;;;;;;;1.40;1.30;;;;;;;;;;5008649;28;20231;-40
2021/08/10 00:55:09;;;;;;;1.30;1.20;;;;;;;;;;5024887;28;20198;-40
2021/08/10 00:57:35;;;;;;;1.00;0.98;;;;;;;;;;5034048;28;20429;-40
2021/08/10 01:00:02;;;;;;;1.15;1.10;;;;;;;;;;5034581;28;20581;-40
2021/08/10 01:02:28;;;;;;;1.17;1.10;;;;;;;;;;5023958;28;20215;-40
2021/08/10 01:04:54;;;;;;;1.35;1.25;;;;;;;;;;5021740;28;20747;-40
2021/08/10 01:07:24;;;;;;;1.30;1.20;;;;;;;;;;5031711;28;20246;-40
2021/08/10 01:09:55;;;;;;;1.35;1.25;;;;;;;;;;5014750;28;20177;-40
2021/08/10 01:12:28;;;;;;;0.93;0.90;;;;;;;;;;5014583;28;20231;-40
2021/08/10 01:15:09;;;;;;;1.15;1.05;;;;;;;;;;5014481;28;20400;-40
2021/08/10 01:17:35;;;;;;;1.33;1.23;;;;;;;;;;5014202;28;20168;-40
2021/08/10 01:20:01;;;;;;;1.20;1.10;;;;;;;;;;5024327;28;20187;-40
2021/08/10 01:22:28;;;;;;;2.35;1.17;;;;;;;;;;5024513;28;20447;-40
2021/08/10 01:25:03;;;;;;;1.33;1.13;;;;;;;;;;5014513;28;20679;-40
2021/08/10 01:27:50;;;;;;;2.35;1.10;;;;;;;;;;5013974;28;20200;-40
2021/08/10 01:30:18;;;;;;;1.20;1.10;;;;;;;;;;5017471;28;20300;-40
2021/08/10 01:32:46;;;;;;;1.63;1.10;;;;;;;;;;5023116;28;20191;-40
2021/08/10 01:35:13;;;;;;;1.30;1.20;;;;;;;;;;5038138;28;20183;-40
2021/08/10 01:37:40;;;;;;;2.05;1.20;;;;;;;;;;5037306;28;20168;-40
2021/08/10 01:40:07;;;;;;;1.23;1.13;;;;;;;;;;5033747;28;20182;-40
2021/08/10 01:42:34;;;;;;;1.30;1.20;;;;;;;;;;5001056;28;20271;-40
2021/08/10 01:45:02;;;;;;;1.65;1.33;;;;;;;;;;5017976;28;20444;-40
2021/08/10 01:47:29;;;;;;;1.60;1.30;;;;;;;;;;5017472;28;20206;-40
2021/08/10 01:49:56;;;;;;;1.63;1.30;;;;;;;;;;5017790;28;20188;-40
2021/08/10 01:52:23;;;;;;;2.70;1.30;;;;;;;;;;5020440;28;20463;-40
2021/08/10 01:54:50;;;;;;;1.58;1.10;;;;;;;;;;5017710;28;20184;-40
2021/08/10 01:57:19;;;;;;;1.30;1.20;;;;;;;;;;5017553;28;20176;-40
2021/08/10 01:59:51;;;;;;;1.30;1.20;;;;;;;;;;5017895;28;20192;-40
2021/08/10 02:02:17;;;;;;;1.30;1.20;;;;;;;;;;5017369;28;20251;-40
2021/08/10 02:04:45;;;;;;;1.20;1.10;;;;;;;;;;5017566;28;20177;-40
2021/08/10 02:07:11;;;;;;;1.33;1.20;;;;;;;;;;5016948;28;20193;-40
2021/08/10 02:09:38;;;;;;;2.08;0.90;;;;;;;;;;5017242;28;20190;-40
2021/08/10 02:12:04;;;;;;;1.27;1.17;;;;;;;;;;5018607;28;20243;-40
2021/08/10 02:14:31;;;;;;;1.30;1.20;;;;;;;;;;5017585;28;20215;-40
2021/08/10 02:17:02;;;;;;;1.10;1.00;;;;;;;;;;5017252;28;20173;-40
2021/08/10 02:19:28;;;;;;;2.35;1.00;;;;;;;;;;5017277;28;20575;-40
2021/08/10 02:21:59;;;;;;;1.13;1.02;;;;;;;;;;5016985;28;20176;-41
2021/08/10 02:24:24;;;;;;;1.15;1.05;;;;;;;;;;5022642;28;20188;-40
2021/08/10 02:26:54;;;;;;;1.10;1.00;;;;;;;;;;5037063;28;20172;-40
2021/08/10 02:29:20;;;;;;;0.80;0.80;;;;;;;;;;5030474;28;20560;-40
2021/08/10 02:31:46;;;;;;;1.25;1.13;;;;;;;;;;5017326;28;20173;-40
2021/08/10 02:34:14;;;;;;;2.22;1.45;;;;;;;;;;5017136;28;20448;-40
2021/08/10 02:36:41;;;;;;;2.40;1.30;;;;;;;;;;5017144;28;20169;-40
2021/08/10 02:39:08;;;;;;;1.17;1.08;;;;;;;;;;5016199;28;20188;-40
2021/08/10 02:41:36;;;;;;;1.33;1.17;;;;;;;;;;5034635;28;20207;-40
2021/08/10 02:44:03;;;;;;;1.48;1.10;;;;;;;;;;5036767;28;20172;-40
2021/08/10 02:46:29;;;;;;;1.25;1.00;;;;;;;;;;5027997;28;20184;-40
2021/08/10 02:48:55;;;;;;;0.93;0.93;;;;;;;;;;5016102;28;20200;-40
2021/08/10 02:51:21;;;;;;;1.35;0.90;;;;;;;;;;5016944;28;20438;-40
2021/08/10 02:53:47;;;;;;;1.30;1.20;;;;;;;;;;5027797;28;20191;-40
2021/08/10 02:56:16;;;;;;;1.33;1.00;;;;;;;;;;5030370;28;20176;-40
2021/08/10 02:58:48;;;;;;;1.15;1.10;;;;;;;;;;5016154;28;20175;-40
2021/08/10 03:01:16;;;;;;;1.60;0.95;;;;;;;;;;5017626;28;20531;-40
2021/08/10 03:03:42;;;;;;;1.13;1.02;;;;;;;;;;5016407;28;20712;-40
2021/08/10 03:06:10;;;;;;;1.08;0.90;;;;;;;;;;5016297;28;20388;-40
2021/08/10 03:08:38;;;;;;;1.23;1.10;;;;;;;;;;5015886;28;20544;-40
2021/08/10 03:11:07;;;;;;;1.30;1.00;;;;;;;;;;5016969;28;20227;-40
2021/08/10 03:13:35;;;;;;;1.30;1.20;;;;;;;;;;5016474;28;20529;-40
2021/08/10 03:16:02;;;;;;;1.50;1.10;;;;;;;;;;5016754;28;20626;-40
2021/08/10 03:18:30;;;;;;;1.20;1.10;;;;;;;;;;5015885;28;20192;-40
2021/08/10 03:20:59;;;;;;;1.02;0.93;;;;;;;;;;5017401;28;20223;-40
2021/08/10 03:23:27;;;;;;;1.00;1.00;;;;;;;;;;5017353;28;20183;-40
2021/08/10 03:25:53;;;;;;;1.63;1.17;;;;;;;;;;5015931;28;20216;-40
2021/08/10 03:28:20;;;;;;;1.20;1.10;;;;;;;;;;5015479;28;20299;-40
2021/08/10 03:30:46;;;;;;;1.75;1.00;;;;;;;;;;5015829;28;20168;-40
2021/08/10 03:33:12;;;;;;;1.65;1.10;;;;;;;;;;5018273;28;20177;-40
2021/08/10 03:35:38;;;;;;;0.95;0.95;;;;;;;;;;5021219;28;20196;-40
2021/08/10 03:38:04;;;;;;;1.08;0.90;;;;;;;;;;5016501;28;20184;-40
2021/08/10 03:40:31;;;;;;;1.40;0.90;;;;;;;;;;5028850;28;20195;-40
2021/08/10 03:42:57;;;;;;;1.33;1.10;;;;;;;;;;5035560;28;20168;-40
2021/08/10 03:45:26;;;;;;;0.93;0.90;;;;;;;;;;5023728;28;20532;-40
2021/08/10 03:47:53;;;;;;;1.10;1.00;;;;;;;;;;5016372;28;20196;-40
2021/08/10 03:50:19;;;;;;;1.42;1.33;;;;;;;;;;5016750;28;20594;-40
2021/08/10 03:52:47;;;;;;;1.20;1.10;;;;;;;;;;5015856;28;20473;-40
2021/08/10 03:55:13;;;;;;;1.20;0.93;;;;;;;;;;5016649;28;20176;-40
2021/08/10 03:57:40;;;;;;;1.00;1.00;;;;;;;;;;5014729;28;20175;-40
2021/08/10 04:00:07;;;;;;;1.40;1.30;;;;;;;;;;5034866;28;20190;-40
2021/08/10 04:02:34;;;;;;;2.60;1.20;;;;;;;;;;5035181;28;20571;-40
2021/08/10 04:05:00;;;;;;;2.28;1.05;;;;;;;;;;5027067;28;20675;-40
2021/08/10 04:07:28;;;;;;;1.10;0.95;;;;;;;;;;5014854;28;20290;-40
2021/08/10 04:09:55;;;;;;;1.38;1.05;;;;;;;;;;5032008;28;20183;-40
2021/08/10 04:12:21;;;;;;;2.67;1.23;;;;;;;;;;5034651;28;20180;-40
2021/08/10 04:14:47;;;;;;;0.88;0.88;;;;;;;;;;5015540;28;20559;-40
2021/08/10 04:17:13;;;;;;;2.10;1.00;;;;;;;;;;5014917;28;20184;-40
2021/08/10 04:19:45;;;;;;;1.30;1.20;;;;;;;;;;5014951;28;20181;-40
2021/08/10 04:22:13;;;;;;;0.95;0.95;;;;;;;;;;5027240;28;20581;-40
2021/08/10 04:24:43;;;;;;;0.85;0.85;;;;;;;;;;5017389;28;20180;-40
2021/08/10 04:27:09;;;;;;;1.42;1.00;;;;;;;;;;5014506;28;20200;-40
2021/08/10 04:29:35;;;;;;;1.42;1.10;;;;;;;;;;5016127;28;20215;-40
2021/08/10 04:32:01;;;;;;;1.25;0.90;;;;;;;;;;5014885;28;20645;-40
2021/08/10 04:34:27;;;;;;;1.38;0.98;;;;;;;;;;5014788;28;20338;-40
2021/08/10 04:36:53;;;;;;;1.23;1.05;;;;;;;;;;5016511;28;20667;-40
2021/08/10 04:39:19;;;;;;;1.80;1.00;;;;;;;;;;5015033;28;20192;-40
2021/08/10 04:41:45;;;;;;;2.40;1.10;;;;;;;;;;5014595;28;20234;-40
2021/08/10 04:44:11;;;;;;;1.00;1.00;;;;;;;;;;5014927;28;20177;-40
2021/08/10 04:46:37;;;;;;;1.48;1.13;;;;;;;;;;5014918;28;20241;-40
2021/08/10 04:49:05;;;;;;;1.08;0.98;;;;;;;;;;5014290;28;20581;-40
2021/08/10 04:51:31;;;;;;;1.35;1.25;;;;;;;;;;5014501;28;20575;-40
2021/08/10 04:53:58;;;;;;;1.27;1.10;;;;;;;;;;5015065;28;20614;-40
2021/08/10 04:56:24;;;;;;;1.50;1.08;;;;;;;;;;5014778;28;20204;-40
2021/08/10 04:58:50;;;;;;;1.13;1.02;;;;;;;;;;5014386;28;20261;-40
2021/08/10 05:01:16;;;;;;;1.08;0.90;;;;;;;;;;5014583;28;20595;-40
2021/08/10 05:03:42;;;;;;;1.23;0.93;;;;;;;;;;5015587;28;20215;-40
2021/08/10 05:06:08;;;;;;;6.95;2.25;;;;;;;;;;5020534;28;20286;-40
2021/08/10 05:08:34;;;;;;;13.82;3.42;;;;;;;;;;5017581;28;20184;-40
2021/08/10 05:11:01;;;;;;;12.35;3.33;;;;;;;;;;5018304;28;20203;-40
2021/08/10 05:13:27;;;;;;;11.45;3.25;;;;;;;;;;5018572;28;20179;-40
2021/08/10 05:15:53;;;;;;;11.68;3.33;;;;;;;;;;5018656;28;20164;-40
2021/08/10 05:18:20;;;;;;;9.93;2.83;;;;;;;;;;5017912;28;20176;-40
2021/08/10 05:20:46;;;;;;;8.23;2.95;;;;;;;;;;5018624;28;20176;-40
2021/08/10 05:23:12;;;;;;;8.93;3.03;;;;;;;;;;5011224;28;20176;-40
2021/08/10 05:25:38;;;;;;;8.48;3.03;;;;;;;;;;5038108;28;20172;-40
2021/08/10 05:28:05;;;;;;;8.85;2.47;;;;;;;;;;5038022;28;20473;-40
2021/08/10 05:30:31;;;;;;;6.45;2.20;;;;;;;;;;5020850;28;20171;-40
2021/08/10 05:32:57;;;;;;;7.43;2.17;;;;;;;;;;5036715;28;20609;-40
2021/08/10 05:35:23;;;;;;;5.20;2.53;;;;;;;;;;5036381;28;20183;-40
2021/08/10 05:37:49;;;;;;;5.38;2.30;;;;;;;;;;5034874;28;20286;-40
2021/08/10 05:40:15;;;;;;;5.75;2.00;;;;;;;;;;5036284;28;20180;-40
2021/08/10 05:42:41;;;;;;;5.60;1.92;;;;;;;;;;5037267;28;20243;-40
2021/08/10 05:45:07;;;;;;;7.18;2.10;;;;;;;;;;5021305;28;20203;-40
2021/08/10 05:47:33;;;;;;;8.02;2.30;;;;;;;;;;5016717;28;20258;-40
2021/08/10 05:49:59;;;;;;;6.50;2.33;;;;;;;;;;5022676;28;20179;-44
2021/08/10 05:52:25;;;;;;;9.02;2.17;;;;;;;;;;5031806;28;20181;-40
2021/08/10 05:54:51;;;;;;;6.28;2.30;;;;;;;;;;5026822;28;20195;-40
2021/08/10 05:57:17;;;;;;;7.60;2.50;;;;;;;;;;5037308;28;20184;-40
2021/08/10 05:59:44;;;;;;;3.65;2.15;;;;;;;;;;5037656;28;20695;-40
2021/08/10 06:02:10;;;;;;;3.13;1.65;;;;;;;;;;5037734;28;20168;-40
2021/08/10 06:04:36;;;;;;;6.18;2.28;;;;;;;;;;5030218;28;20264;-40
2021/08/10 06:07:04;;;;;;;7.50;2.10;;;;;;;;;;5025301;28;20228;-40
2021/08/10 06:09:30;;;;;;;4.53;2.00;;;;;;;;;;5008963;28;20188;-40
2021/08/10 06:11:56;;;;;;;5.07;2.00;;;;;;;;;;5025690;28;20203;-41
2021/08/10 06:14:22;;;;;;;4.30;1.88;;;;;;;;;;5017273;28;20191;-40
2021/08/10 06:16:48;;;;;;;4.05;1.90;;;;;;;;;;5016793;28;20188;-40
2021/08/10 06:19:14;;;;;;;4.97;2.25;;;;;;;;;;5018281;28;20603;-40
2021/08/10 06:21:40;;;;;;;2.90;1.77;;;;;;;;;;5017368;28;20258;-40
2021/08/10 06:24:06;;;;;;;3.35;1.88;;;;;;;;;;5019846;28;20327;-40
2021/08/10 06:26:32;;;;;;;4.22;1.92;;;;;;;;;;5034569;28;20200;-41
2021/08/10 06:28:58;;;;;;;5.63;1.73;;;;;;;;;;5020437;28;20313;-40
2021/08/10 06:31:24;;;;;;;4.70;2.05;;;;;;;;;;5016330;28;20179;-41
2021/08/10 06:33:50;;;;;;;6.95;2.20;;;;;;;;;;5023736;28;20446;-40
2021/08/10 06:36:16;;;;;;;6.53;2.38;;;;;;;;;;5026284;28;20177;-40
2021/08/10 06:38:42;;;;;;;5.00;2.70;;;;;;;;;;5016830;28;20230;-40
2021/08/10 06:41:08;;;;;;;4.30;2.20;;;;;;;;;;5016416;28;20176;-40
2021/08/10 06:43:34;;;;;;;5.10;3.03;;;;;;;;;;5028078;28;20191;-40
2021/08/10 06:46:00;;;;;;;6.43;4.00;;;;;;;;;;5037329;28;20186;-40
2021/08/10 06:48:26;;;;;;;8.23;4.03;;;;;;;;;;5035925;28;20207;-40
2021/08/10 06:50:53;;;;;;;7.30;3.50;;;;;;;;;;5036600;28;20230;-40
2021/08/10 06:53:19;;;;;;;6.30;3.50;;;;;;;;;;5033920;28;20172;-40
2021/08/10 06:55:46;;;;;;;6.75;3.20;;;;;;;;;;5036633;28;20218;-40
2021/08/10 06:58:12;;;;;;;7.43;3.42;;;;;;;;;;5036126;28;20212;-40
2021/08/10 07:00:39;;;;;;;4.93;3.53;;;;;;;;;;5036579;28;20175;-40
2021/08/10 07:03:05;;;;;;;9.98;3.83;;;;;;;;;;5035943;28;20203;-40
2021/08/10 07:05:31;;;;;;;8.60;3.83;;;;;;;;;;5036416;28;20223;-40
2021/08/10 07:07:57;;;;;;;4.97;3.53;;;;;;;;;;5028324;28;20287;-40
2021/08/10 07:10:23;;;;;;;6.72;3.53;;;;;;;;;;5016486;28;20460;-40
2021/08/10 07:12:49;;;;;;;4.95;2.88;;;;;;;;;;5017192;28;20173;-40
2021/08/10 07:15:15;;;;;;;6.88;3.30;;;;;;;;;;5022884;28;20230;-40
2021/08/10 07:17:41;;;;;;;4.88;2.88;;;;;;;;;;5015623;28;20323;-40
2021/08/10 07:20:08;;;;;;;5.13;3.13;;;;;;;;;;5016337;28;20173;-40
2021/08/10 07:22:34;;;;;;;4.63;2.83;;;;;;;;;;5016301;28;20179;-40
2021/08/10 07:25:00;;;;;;;6.25;3.28;;;;;;;;;;5034547;28;20187;-40
2021/08/10 07:27:26;;;;;;;7.00;3.40;;;;;;;;;;5034321;28;20200;-40
2021/08/10 07:29:53;;;;;;;6.82;3.20;;;;;;;;;;5036093;28;20502;-40
2021/08/10 07:32:19;;;;;;;5.03;3.00;;;;;;;;;;5035568;28;20160;-40
2021/08/10 07:34:45;;;;;;;5.65;3.17;;;;;;;;;;5027387;28;20455;-40
2021/08/10 07:37:11;;;;;;;4.35;2.90;;;;;;;;;;5015482;28;20179;-40
2021/08/10 07:39:37;;;;;;;4.28;3.00;;;;;;;;;;5015313;28;20595;-40
2021/08/10 07:42:03;;;;;;;8.13;3.30;;;;;;;;;;5015731;28;20253;-40
2021/08/10 07:44:29;;;;;;;6.50;3.15;;;;;;;;;;5016833;28;20571;-40
2021/08/10 07:46:55;;;;;;;5.90;2.97;;;;;;;;;;5034551;28;20191;-40
2021/08/10 07:49:21;;;;;;;5.45;3.00;;;;;;;;;;5034827;28;20518;-47
2021/08/10 07:51:47;;;;;;;4.40;3.08;;;;;;;;;;5035303;28;20554;-48
2021/08/10 07:54:13;;;;;;;8.15;3.20;;;;;;;;;;5027427;28;20286;-48
2021/08/10 07:56:39;;;;;;;7.15;2.70;;;;;;;;;;5002628;28;20323;-46
2021/08/10 07:59:05;;;;;;;10.77;3.10;;;;;;;;;;5022691;28;20274;-47
2021/08/10 08:01:31;;;;;;;11.23;2.95;;;;;;;;;;5015106;28;20247;-48
2021/08/10 08:03:57;;;;;;;6.65;3.22;;;;;;;;;;5015064;28;20552;-47
2021/08/10 08:06:23;;;;;;;11.48;3.40;;;;;;;;;;5015401;28;20230;-47
2021/08/10 08:08:49;;;;;;;7.18;2.78;;;;;;;;;;5013684;28;20203;-47
2021/08/10 08:11:15;;;;;;;9.27;3.00;;;;;;;;;;5014530;28;20198;-47
2021/08/10 08:13:42;;;;;;;4.82;2.70;;;;;;;;;;5014491;28;20246;-47
2021/08/10 08:16:08;;;;;;;8.57;2.58;;;;;;;;;;5015098;28;20172;-47
2021/08/10 08:18:34;;;;;;;8.00;3.10;;;;;;;;;;5014863;28;20172;-47
2021/08/10 08:21:00;;;;;;;8.15;2.95;;;;;;;;;;5015339;28;20455;-47
2021/08/10 08:23:28;;;;;;;7.43;3.22;;;;;;;;;;5014221;28;20642;-47
2021/08/10 08:25:54;;;;;;;7.80;2.65;;;;;;;;;;5014207;28;20175;-48
2021/08/10 08:28:20;;;;;;;10.40;2.78;;;;;;;;;;5013736;28;20200;-48
2021/08/10 08:30:46;;;;;;;8.50;2.63;;;;;;;;;;5012972;28;20179;-48
2021/08/10 08:33:12;;;;;;;8.75;2.55;;;;;;;;;;5014439;28;20169;-48
2021/08/10 08:35:39;;;;;;;8.00;2.60;;;;;;;;;;5014232;28;20191;-48
2021/08/10 08:41:09;;;;;;;9.15;2.90;;;;;;;;;;5017239;28;20543;-47
2021/08/10 08:43:35;;;;;;;8.40;2.58;;;;;;;;;;5016932;28;20458;-47
2021/08/10 08:46:01;;;;;;;13.27;3.45;;;;;;;;;;5016969;28;20264;-48
2021/08/10 08:48:29;;;;;;;20.70;8.80;;;;;;;;;;5016925;28;20200;-48
2021/08/10 08:54:01;;;;;;;33.08;13.30;;;;;;;;;;5017452;28;20523;-48
2021/08/10 08:56:27;;;;;;;42.95;18.38;;;;;;;;;;5017131;28;20176;-47
2021/08/10 08:58:55;;;;;;;37.38;16.55;;;;;;;;;;5016914;28;20168;-47
2021/08/10 09:01:21;;;;;;;39.70;17.23;;;;;;;;;;5017175;28;20180;-47
2021/08/10 09:03:47;;;;;;;42.75;19.67;;;;;;;;;;5017017;28;20200;-47
2021/08/10 09:06:13;;;;;;;44.53;19.77;;;;;;;;;;5016916;28;20181;-47
2021/08/10 09:08:41;;;;;;;47.65;19.45;;;;;;;;;;5016670;28;20572;-47
2021/08/10 09:11:15;;;;;;;36.83;17.70;;;;;;;;;;5016860;28;20175;-47
2021/08/10 09:13:54;;;;;;;37.75;18.08;;;;;;;;;;5016926;28;20156;-47
2021/08/10 09:16:20;;;;;;;32.67;14.63;;;;;;;;;;5016893;28;20185;-47
2021/08/10 09:18:46;;;;;;;26.48;11.40;;;;;;;;;;5016641;28;20588;-47
2021/08/10 09:21:14;;;;;;;19.05;9.48;;;;;;;;;;5015469;28;20177;-47
2021/08/10 09:23:40;;;;;;;19.83;7.55;;;;;;;;;;5014469;28;20173;-48
2021/08/10 09:26:06;;;;;;;14.93;7.43;;;;;;;;;;5006301;28;20186;-48
2021/08/10 09:28:33;;;;;;;14.50;7.25;;;;;;;;;;4997887;28;20284;-48
2021/08/10 09:31:17;;;;;;;13.23;6.63;;;;;;;;;;5000905;28;20456;-48
2021/08/10 09:33:43;;;;;;;13.05;6.07;;;;;;;;;;5001095;28;20185;-48
2021/08/10 09:36:19;;;;;;;11.00;5.43;;;;;;;;;;4996610;28;20199;-48
2021/08/10 09:38:48;;;;;;;8.30;4.03;;;;;;;;;;4995204;28;20209;-48
2021/08/10 09:41:15;;;;;;;7.15;3.50;;;;;;;;;;5001289;28;20189;-47
2021/08/10 09:43:41;;;;;;;8.75;3.67;;;;;;;;;;5002747;28;20563;-48
2021/08/10 09:46:14;;;;;;;7.78;3.92;;;;;;;;;;5012707;28;20188;-48
2021/08/10 09:48:42;;;;;;;9.35;3.88;;;;;;;;;;4996926;28;20197;-48
2021/08/10 09:51:09;;;;;;;8.02;3.70;;;;;;;;;;5007461;28;20587;-48
2021/08/10 09:53:36;;;;;;;6.10;3.00;;;;;;;;;;4991722;28;20624;-48
2021/08/10 09:56:02;;;;;;;4.30;2.47;;;;;;;;;;4997663;28;20186;-48
2021/08/10 09:58:28;;;;;;;3.63;2.33;;;;;;;;;;4996282;28;20177;-48
2021/08/10 10:00:59;;;;;;;4.43;2.17;;;;;;;;;;5012691;28;20188;-48
2021/08/10 10:03:27;;;;;;;4.70;2.10;;;;;;;;;;5016232;28;20183;-47
2021/08/10 10:05:53;;;;;;;3.22;2.03;;;;;;;;;;4996894;28;20181;-47
2021/08/10 10:08:19;;;;;;;4.80;2.13;;;;;;;;;;5007258;28;20199;-47
2021/08/10 10:10:46;;;;;;;4.00;2.00;;;;;;;;;;5008026;28;20263;-47
2021/08/10 10:13:13;;;;;;;5.13;1.80;;;;;;;;;;5004322;28;20176;-47
2021/08/10 10:15:40;;;;;;;2.88;2.00;;;;;;;;;;5017464;28;20556;-47
2021/08/10 10:18:07;;;;;;;5.05;1.90;;;;;;;;;;5013756;28;20196;-47
2021/08/10 10:20:33;;;;;;;3.00;1.90;;;;;;;;;;5012339;28;20189;-47
2021/08/10 10:23:00;;;;;;;3.72;2.00;;;;;;;;;;5004366;28;20215;-47
2021/08/10 10:25:26;;;;;;;4.18;1.83;;;;;;;;;;4998575;28;20185;-47
2021/08/10 10:27:55;;;;;;;4.50;1.85;;;;;;;;;;4998316;28;20197;-47
2021/08/10 10:30:21;;;;;;;5.22;1.98;;;;;;;;;;4999005;28;20173;-47
2021/08/10 10:32:47;;;;;;;2.25;1.70;;;;;;;;;;4998919;28;20269;-47
2021/08/10 10:35:13;;;;;;;4.53;1.70;;;;;;;;;;4980726;28;20177;-47
2021/08/10 10:37:40;;;;;;;4.10;1.70;;;;;;;;;;5016349;28;20176;-47
2021/08/10 10:40:07;;;;;;;6.07;1.83;;;;;;;;;;5009738;28;20181;-47
2021/08/10 10:42:33;;;;;;;2.38;1.52;;;;;;;;;;4997684;28;20180;-48
2021/08/10 10:44:59;;;;;;;3.40;1.70;;;;;;;;;;4997351;28;20232;-47
2021/08/10 10:47:28;;;;;;;3.35;1.83;;;;;;;;;;5007382;28;20193;-47
2021/08/10 10:49:57;;;;;;;4.65;1.77;;;;;;;;;;5016984;28;20595;-47
2021/08/10 10:52:27;;;;;;;2.83;1.77;;;;;;;;;;5016582;28;20597;-47
2021/08/10 10:54:54;;;;;;;3.58;1.75;;;;;;;;;;5016920;28;20177;-47
2021/08/10 10:57:32;;;;;;;2.38;1.60;;;;;;;;;;5016366;28;20171;-47
2021/08/10 10:59:58;;;;;;;4.53;1.85;;;;;;;;;;5016457;28;20173;-47
2021/08/10 11:02:27;;;;;;;4.10;1.90;;;;;;;;;;5017283;28;20231;-47
2021/08/10 11:05:09;;;;;;;3.13;1.88;;;;;;;;;;5016314;28;20458;-47
2021/08/10 11:07:36;;;;;;;2.38;1.77;;;;;;;;;;5014962;28;20204;-47
2021/08/10 11:10:02;;;;;;;3.95;1.50;;;;;;;;;;5014971;28;20173;-47
2021/08/10 11:12:47;;;;;;;2.42;1.50;;;;;;;;;;5016481;28;20199;-47
2021/08/10 11:15:20;;;;;;;2.05;1.65;;;;;;;;;;5017192;28;20239;-47
2021/08/10 11:18:04;;;;;;;2.25;1.63;;;;;;;;;;5015995;28;20730;-48
2021/08/10 11:20:30;;;;;;;1.92;1.60;;;;;;;;;;5019112;28;20184;-48
2021/08/10 11:23:16;;;;;;;2.97;1.60;;;;;;;;;;5036155;28;20274;-48
2021/08/10 11:25:42;;;;;;;2.65;1.83;;;;;;;;;;5017059;28;20258;-48
2021/08/10 11:28:26;;;;;;;1.77;1.58;;;;;;;;;;5015709;28;20239;-47
2021/08/10 11:30:53;;;;;;;3.72;1.75;;;;;;;;;;5016323;28;20251;-47
2021/08/10 11:33:38;;;;;;;8.02;1.73;;;;;;;;;;5015989;28;20252;-47
2021/08/10 11:36:20;;;;;;;2.38;1.75;;;;;;;;;;5015896;28;20161;-47
2021/08/10 11:38:52;;;;;;;3.25;1.90;;;;;;;;;;5015614;28;20168;-47
2021/08/10 11:41:29;;;;;;;3.85;1.90;;;;;;;;;;5016952;28;20180;-47
2021/08/10 11:43:56;;;;;;;1.58;1.40;;;;;;;;;;5016196;28;20460;-47
2021/08/10 11:46:26;;;;;;;3.75;1.90;;;;;;;;;;5015595;28;20183;-47
2021/08/10 11:49:00;;;;;;;2.42;1.95;;;;;;;;;;5015301;28;20200;-47
2021/08/10 11:51:27;;;;;;;27.25;5.88;;;;;;;;;;5015879;28;20252;-47
2021/08/10 11:53:54;;;;;;;23.30;7.13;;;;;;;;;;5016937;28;20255;-47
2021/08/10 11:56:21;;;;;;;21.35;5.47;;;;;;;;;;5015893;28;20188;-47
2021/08/10 11:58:47;;;;;;;23.05;5.93;;;;;;;;;;5016336;28;20275;-47
2021/08/10 12:01:14;;;;;;;14.13;3.92;;;;;;;;;;5016596;28;20194;-48
2021/08/10 12:03:41;;;;;;;11.93;4.05;;;;;;;;;;5015675;28;20165;-47
2021/08/10 12:06:07;;;;;;;8.27;3.72;;;;;;;;;;5015749;28;20176;-47
2021/08/10 12:08:33;;;;;;;13.05;4.03;;;;;;;;;;5015021;28;20464;-47
2021/08/10 12:10:59;;;;;;;12.35;3.30;;;;;;;;;;5015653;28;20239;-47
2021/08/10 12:13:26;;;;;;;7.32;2.78;;;;;;;;;;5014700;28;20188;-47
2021/08/10 12:15:54;;;;;;;8.50;3.15;;;;;;;;;;5017937;28;20177;-47
2021/08/10 12:18:20;;;;;;;8.60;2.90;;;;;;;;;;5014669;28;20268;-47
2021/08/10 12:21:00;;;;;;;7.93;3.00;;;;;;;;;;5015165;28;20176;-47
2021/08/10 12:23:48;;;;;;;6.38;2.90;;;;;;;;;;5015403;28;20438;-47
2021/08/10 12:26:15;;;;;;;6.97;3.03;;;;;;;;;;5015227;28;20544;-47
2021/08/10 12:28:54;;;;;;;7.07;2.72;;;;;;;;;;5014658;28;20246;-47
2021/08/10 12:31:21;;;;;;;6.93;2.83;;;;;;;;;;5014904;28;20488;-47
2021/08/10 12:33:50;;;;;;;6.82;2.63;;;;;;;;;;5015145;28;20187;-47
2021/08/10 12:36:16;;;;;;;4.28;2.47;;;;;;;;;;5015077;28;20168;-47
2021/08/10 12:38:42;;;;;;;4.43;2.28;;;;;;;;;;5014107;28;20211;-47
2021/08/10 12:41:09;;;;;;;4.43;2.58;;;;;;;;;;5015152;28;20199;-47
2021/08/10 12:43:35;;;;;;;4.85;2.08;;;;;;;;;;5014965;28;20540;-47
2021/08/10 12:46:21;;;;;;;5.53;2.40;;;;;;;;;;5014950;28;20165;-48
2021/08/10 12:49:01;;;;;;;6.38;2.42;;;;;;;;;;5014334;28;20200;-48
2021/08/10 12:51:27;;;;;;;5.13;1.95;;;;;;;;;;5015127;28;20210;-48
2021/08/10 12:53:54;;;;;;;2.90;2.00;;;;;;;;;;5014548;28;20271;-48
2021/08/10 12:56:20;;;;;;;5.47;2.35;;;;;;;;;;5014799;28;20161;-48
2021/08/10 12:58:52;;;;;;;3.15;1.98;;;;;;;;;;5014168;28;20203;-48
2021/08/10 13:01:19;;;;;;;3.33;2.20;;;;;;;;;;5014595;28;20271;-48
2021/08/10 13:03:45;;;;;;;5.28;2.42;;;;;;;;;;5014640;28;20559;-48
2021/08/10 13:06:24;;;;;;;5.07;2.20;;;;;;;;;;5014931;28;20564;-48
2021/08/10 13:08:54;;;;;;;3.97;1.90;;;;;;;;;;5013832;28;20208;-48
2021/08/10 13:11:21;;;;;;;4.22;2.05;;;;;;;;;;5014545;28;20176;-48
2021/08/10 13:13:48;;;;;;;4.00;2.22;;;;;;;;;;5014332;28;20169;-48
2021/08/10 13:16:14;;;;;;;3.22;2.00;;;;;;;;;;5014458;28;20191;-48
2021/08/10 13:18:40;;;;;;;2.35;1.90;;;;;;;;;;5014021;28;20260;-48
2021/08/10 13:21:07;;;;;;;2.58;1.73;;;;;;;;;;5014428;28;20263;-48
2021/08/10 13:23:37;;;;;;;5.10;2.22;;;;;;;;;;5012467;28;20191;-48
2021/08/10 13:26:04;;;;;;;3.30;1.90;;;;;;;;;;5016481;28;20264;-48
2021/08/10 13:28:59;;;;;;;3.53;1.92;;;;;;;;;;5020176;28;20188;-48
2021/08/10 13:31:26;;;;;;;3.85;2.38;;;;;;;;;;5007570;28;20250;-48
2021/08/10 13:33:52;;;;;;;3.92;1.90;;;;;;;;;;5021324;28;20175;-48
2021/08/10 13:36:18;;;;;;;3.30;1.98;;;;;;;;;;5028728;28;20184;-48
2021/08/10 13:38:44;;;;;;;3.83;1.92;;;;;;;;;;5027599;28;20204;-48
2021/08/10 13:41:10;;;;;;;3.58;2.13;;;;;;;;;;5017493;28;20270;-48
2021/08/10 13:43:36;;;;;;;3.50;2.38;;;;;;;;;;5029761;28;20195;-48
2021/08/10 13:46:02;;;;;;;4.28;2.20;;;;;;;;;;5033320;28;20180;-48
2021/08/10 13:48:28;;;;;;;3.05;2.15;;;;;;;;;;5035354;28;20494;-48
2021/08/10 13:50:54;;;;;;;2.78;2.05;;;;;;;;;;5037951;28;20199;-48
2021/08/10 13:53:20;;;;;;;4.20;2.20;;;;;;;;;;5018627;28;20180;-48
2021/08/10 13:55:46;;;;;;;3.08;2.03;;;;;;;;;;5031451;28;20195;-48
2021/08/10 13:58:12;;;;;;;3.53;2.42;;;;;;;;;;5035465;28;20214;-48
2021/08/10 14:00:38;;;;;;;2.38;2.10;;;;;;;;;;5033213;28;20263;-48
2021/08/10 14:03:04;;;;;;;2.33;2.03;;;;;;;;;;5025897;28;20234;-48
2021/08/10 14:05:30;;;;;;;3.90;2.28;;;;;;;;;;5034456;28;20580;-48
2021/08/10 14:07:56;;;;;;;3.60;2.42;;;;;;;;;;5018063;28;20522;-48
2021/08/10 14:10:22;;;;;;;3.80;2.25;;;;;;;;;;5033005;28;20606;-48
2021/08/10 14:12:48;;;;;;;3.08;2.17;;;;;;;;;;5037369;28;20172;-48
2021/08/10 14:15:14;;;;;;;2.63;2.10;;;;;;;;;;5035780;28;20219;-48
2021/08/10 14:17:41;;;;;;;3.58;2.00;;;;;;;;;;5036788;28;20180;-48
2021/08/10 14:20:07;;;;;;;2.25;2.00;;;;;;;;;;5037254;28;20172;-48
2021/08/10 14:22:33;;;;;;;3.85;2.28;;;;;;;;;;5037201;28;20195;-48
2021/08/10 14:24:59;;;;;;;3.10;2.05;;;;;;;;;;5036949;28;20459;-48
2021/08/10 14:27:25;;;;;;;4.25;2.30;;;;;;;;;;5036524;28;20183;-48
2021/08/10 14:29:51;;;;;;;6.30;2.33;;;;;;;;;;5031294;28;20188;-48
2021/08/10 14:32:17;;;;;;;3.47;2.25;;;;;;;;;;5017140;28;20226;-48
2021/08/10 14:34:43;;;;;;;2.58;2.05;;;;;;;;;;5017282;28;20256;-48
2021/08/10 14:37:09;;;;;;;4.57;2.40;;;;;;;;;;5015823;28;20263;-48
2021/08/10 14:39:35;;;;;;;4.68;2.53;;;;;;;;;;5017004;28;20179;-48
2021/08/10 14:42:01;;;;;;;6.93;2.30;;;;;;;;;;5017007;28;20188;-48
2021/08/10 14:44:27;;;;;;;3.33;2.22;;;;;;;;;;5016905;28;20165;-48
2021/08/10 14:46:53;;;;;;;6.80;2.17;;;;;;;;;;5016558;28;20196;-48
2021/08/10 14:49:19;;;;;;;5.13;2.50;;;;;;;;;;5019787;28;20288;-48